Time;durP1;ratioP1;P1;durP2;ratioP2;P2;SDS_P1;SDS_P2;PMS_P1;PMS_P2;Temp;Humidity;BMP_temperature;BMP_pressure;BME280_temperature;BME280_humidity;BME280_pressure;Samples;Min_cycle;Max_cycle;Signal;HPM_P1;HPM_P2
2021/09/05 00:04:26;;;;;;;25.40;13.68;;;;;;;11.61;100.00;101825.28;10473121;28;20067;-76
2021/09/05 00:09:27;;;;;;;21.25;13.02;;;;;;;11.50;100.00;101837.97;10457990;28;20386;-76
2021/09/05 00:14:29;;;;;;;20.50;12.60;;;;;;;11.50;100.00;101830.19;10456911;28;20059;-76
2021/09/05 00:19:30;;;;;;;17.95;12.15;;;;;;;11.31;100.00;101831.41;10459243;28;20053;-76
2021/09/05 00:24:32;;;;;;;19.52;12.75;;;;;;;11.36;100.00;101832.41;10455557;28;20049;-77
2021/09/05 00:29:33;;;;;;;20.38;13.00;;;;;;;11.25;100.00;101832.97;10455354;28;20049;-76
2021/09/05 00:34:35;;;;;;;21.48;13.88;;;;;;;11.25;100.00;101836.41;10455073;28;20061;-76
2021/09/05 00:39:37;;;;;;;22.52;13.65;;;;;;;11.15;100.00;101840.44;10455212;28;20063;-76
2021/09/05 00:44:38;;;;;;;21.60;13.82;;;;;;;11.32;100.00;101834.88;10455091;28;20052;-76
2021/09/05 00:49:40;;;;;;;21.88;13.18;;;;;;;11.26;100.00;101843.34;10455865;28;20055;-77
2021/09/05 00:54:43;;;;;;;21.98;14.38;;;;;;;11.21;100.00;101846.66;10444001;28;20051;-76
2021/09/05 00:59:48;;;;;;;21.42;12.30;;;;;;;11.11;100.00;101842.91;10454884;28;20064;-76
2021/09/05 01:04:49;;;;;;;20.90;13.55;;;;;;;11.11;100.00;101843.78;10453948;28;20406;-76
2021/09/05 01:09:52;;;;;;;19.80;12.43;;;;;;;11.09;100.00;101845.47;10454857;28;20489;-76
2021/09/05 01:14:53;;;;;;;20.77;12.30;;;;;;;11.09;100.00;101847.19;10454062;28;20048;-76
2021/09/05 01:19:54;;;;;;;24.58;14.55;;;;;;;11.01;100.00;101844.38;10461245;28;20052;-76
2021/09/05 01:24:56;;;;;;;23.98;14.32;;;;;;;11.03;100.00;101839.22;10454364;28;20045;-76
2021/09/05 01:29:58;;;;;;;19.52;13.82;;;;;;;11.01;100.00;101835.72;10456856;28;20069;-77
2021/09/05 01:35:01;;;;;;;20.40;12.82;;;;;;;10.96;100.00;101837.31;10454824;28;20052;-76
2021/09/05 01:40:04;;;;;;;29.20;14.30;;;;;;;10.93;100.00;101853.59;10453575;28;20074;-75
2021/09/05 01:45:06;;;;;;;20.25;13.90;;;;;;;10.92;100.00;101850.97;10454781;28;20478;-77
2021/09/05 01:50:10;;;;;;;18.80;12.65;;;;;;;10.79;100.00;101840.28;10453953;28;20140;-76
2021/09/05 01:55:11;;;;;;;23.38;13.93;;;;;;;10.74;100.00;101840.97;10440567;28;20060;-76
2021/09/05 02:00:13;;;;;;;23.75;13.35;;;;;;;10.62;100.00;101844.06;10453725;28;20053;-75
2021/09/05 02:05:14;;;;;;;27.27;15.02;;;;;;;10.69;100.00;101847.72;10454278;28;20459;-76
2021/09/05 02:10:16;;;;;;;23.35;12.70;;;;;;;10.64;100.00;101847.56;10453047;28;20049;-75
2021/09/05 02:15:17;;;;;;;22.92;13.60;;;;;;;10.52;100.00;101847.19;10453015;28;20402;-76
2021/09/05 02:20:19;;;;;;;18.38;12.50;;;;;;;10.51;100.00;101850.59;10458125;28;20095;-76
2021/09/05 02:25:20;;;;;;;23.98;14.05;;;;;;;10.40;100.00;101855.44;10452369;28;20100;-75
2021/09/05 02:30:22;;;;;;;19.27;12.98;;;;;;;10.40;100.00;101857.16;10452223;28;20091;-75
2021/09/05 02:35:23;;;;;;;21.48;13.57;;;;;;;10.38;100.00;101856.22;10453622;28;20065;-76
2021/09/05 02:40:25;;;;;;;21.88;12.98;;;;;;;10.37;100.00;101865.69;10454448;28;20059;-75
2021/09/05 02:45:27;;;;;;;25.83;12.98;;;;;;;10.35;100.00;101865.63;10459605;28;20146;-75
2021/09/05 02:50:28;;;;;;;20.33;12.77;;;;;;;10.25;100.00;101863.56;10459271;28;20045;-75
2021/09/05 02:55:30;;;;;;;24.10;14.88;;;;;;;10.39;100.00;101865.75;10459983;28;20052;-75
2021/09/05 03:00:31;;;;;;;21.90;13.32;;;;;;;10.34;100.00;101870.75;10458820;28;20041;-75
2021/09/05 03:05:34;;;;;;;22.48;13.00;;;;;;;10.27;100.00;101861.94;10458733;28;20056;-76
2021/09/05 03:10:36;;;;;;;29.75;13.80;;;;;;;10.31;100.00;101862.91;10458823;28;20049;-75
2021/09/05 03:15:37;;;;;;;23.83;13.15;;;;;;;10.20;100.00;101854.75;10459818;28;20053;-75
2021/09/05 03:20:39;;;;;;;23.90;13.93;;;;;;;10.10;100.00;101860.47;10465311;28;20512;-76
2021/09/05 03:25:40;;;;;;;23.63;13.70;;;;;;;10.03;100.00;101855.91;10458617;28;20108;-75
2021/09/05 03:30:42;;;;;;;21.23;12.10;;;;;;;9.86;100.00;101862.22;10457461;28;20053;-75
2021/09/05 03:35:44;;;;;;;22.70;12.40;;;;;;;9.81;100.00;101862.97;10457316;28;20060;-75
2021/09/05 03:40:46;;;;;;;22.58;13.57;;;;;;;9.79;100.00;101858.53;10457425;28;20128;-75
2021/09/05 03:45:48;;;;;;;20.85;13.30;;;;;;;9.81;100.00;101865.53;10459463;28;20065;-75
2021/09/05 03:50:50;;;;;;;30.10;14.40;;;;;;;9.71;100.00;101863.47;10456787;28;20508;-75
2021/09/05 03:55:51;;;;;;;21.52;13.32;;;;;;;9.65;100.00;101864.97;10443907;28;20057;-75
2021/09/05 04:00:53;;;;;;;20.63;14.88;;;;;;;9.66;100.00;101861.53;10456463;28;20041;-75
2021/09/05 04:05:55;;;;;;;26.83;14.15;;;;;;;9.65;100.00;101860.66;10456577;28;20152;-75
2021/09/05 04:10:57;;;;;;;19.15;12.60;;;;;;;9.58;100.00;101866.41;10455913;28;20090;-76
2021/09/05 04:15:58;;;;;;;19.27;13.43;;;;;;;9.60;100.00;101869.09;10457397;28;20056;-75
2021/09/05 04:21:00;;;;;;;20.48;13.30;;;;;;;9.59;100.00;101865.63;10462212;28;20093;-74
2021/09/05 04:26:01;;;;;;;21.33;14.23;;;;;;;9.57;100.00;101882.75;10455810;28;20063;-75
2021/09/05 04:31:03;;;;;;;23.58;13.52;;;;;;;9.55;100.00;101877.53;10455210;28;20547;-75
2021/09/05 04:36:05;;;;;;;22.15;12.75;;;;;;;9.58;100.00;101879.34;10455390;28;20131;-75
2021/09/05 04:41:06;;;;;;;23.33;14.68;;;;;;;9.52;100.00;101887.75;10456027;28;20527;-75
2021/09/05 04:46:08;;;;;;;23.20;13.07;;;;;;;9.51;100.00;101882.53;10454921;28;20114;-75
2021/09/05 04:51:10;;;;;;;21.75;13.68;;;;;;;9.47;100.00;101893.56;10449908;28;20044;-76
2021/09/05 04:56:14;;;;;;;26.23;14.20;;;;;;;9.55;100.00;101899.91;10453714;28;20055;-76
2021/09/05 05:01:15;;;;;;;24.65;15.45;;;;;;;9.50;100.00;101901.44;10452449;28;20053;-76
2021/09/05 05:06:17;;;;;;;21.92;14.85;;;;;;;9.46;100.00;101900.44;10444625;28;20111;-75
2021/09/05 05:11:19;;;;;;;25.35;13.73;;;;;;;9.49;100.00;101903.16;10451033;28;20044;-75
2021/09/05 05:16:22;;;;;;;23.27;14.15;;;;;;;9.50;100.00;101906.63;10455788;28;20492;-75
2021/09/05 05:21:27;;;;;;;26.63;15.15;;;;;;;9.50;100.00;101911.78;10455672;28;20056;-75
2021/09/05 05:26:29;;;;;;;23.70;13.68;;;;;;;9.46;100.00;101910.78;10450368;28;20060;-75
2021/09/05 05:31:30;;;;;;;20.63;13.85;;;;;;;9.49;100.00;101916.06;10457781;28;20052;-75
2021/09/05 05:36:33;;;;;;;25.75;15.38;;;;;;;9.60;100.00;101916.47;10453424;28;20072;-75
2021/09/05 05:41:35;;;;;;;23.27;14.40;;;;;;;9.71;100.00;101915.13;10445151;28;20123;-75
2021/09/05 05:46:36;;;;;;;22.25;14.50;;;;;;;9.81;100.00;101913.72;10452761;28;20498;-75
2021/09/05 05:51:38;;;;;;;22.33;13.00;;;;;;;9.87;100.00;101913.06;10452113;28;20044;-75
2021/09/05 05:56:39;;;;;;;26.27;15.55;;;;;;;10.08;100.00;101912.09;10448776;28;20045;-75
2021/09/05 06:01:41;;;;;;;25.48;15.77;;;;;;;10.25;100.00;101914.41;10449633;28;20489;-76
2021/09/05 06:06:43;;;;;;;28.88;16.58;;;;;;;10.35;100.00;101914.78;10451619;28;20053;-76
2021/09/05 06:11:45;;;;;;;29.13;16.63;;;;;;;10.60;100.00;101924.19;10448885;28;20052;-76
2021/09/05 06:16:47;;;;;;;31.90;15.40;;;;;;;10.70;100.00;101922.78;10456690;28;20084;-76
2021/09/05 06:21:49;;;;;;;26.58;16.52;;;;;;;10.96;100.00;101926.22;10464711;28;20099;-76
2021/09/05 06:26:53;;;;;;;24.23;16.05;;;;;;;11.30;100.00;101929.81;10460305;28;20504;-75
2021/09/05 06:31:55;;;;;;;31.65;18.75;;;;;;;11.53;100.00;101921.00;10459492;28;20048;-76
2021/09/05 06:36:56;;;;;;;33.42;18.77;;;;;;;11.56;100.00;101923.66;10461047;28;20076;-75
2021/09/05 06:41:59;;;;;;;29.52;17.48;;;;;;;11.81;99.81;101932.13;10461177;28;20064;-75
2021/09/05 06:47:00;;;;;;;30.67;17.60;;;;;;;12.26;97.81;101919.53;10459761;28;20136;-76
2021/09/05 06:52:03;;;;;;;26.70;18.40;;;;;;;12.52;96.68;101929.66;10459303;28;20488;-75
2021/09/05 06:57:06;;;;;;;28.83;16.98;;;;;;;12.49;95.18;101927.00;10459197;28;20060;-76
2021/09/05 07:02:07;;;;;;;25.70;15.65;;;;;;;12.90;94.01;101934.03;10459829;28;20125;-76
2021/09/05 07:07:09;;;;;;;22.90;14.02;;;;;;;13.00;93.32;101943.81;10459257;28;20458;-76
2021/09/05 07:12:11;;;;;;;23.92;13.70;;;;;;;13.42;92.37;101945.59;10460056;28;20041;-76
2021/09/05 07:17:13;;;;;;;26.73;14.18;;;;;;;13.92;91.53;101942.25;10462640;28;20045;-76
2021/09/05 07:22:14;;;;;;;27.33;14.95;;;;;;;13.82;89.66;101943.78;10460257;28;20445;-77
2021/09/05 07:27:16;;;;;;;20.17;13.02;;;;;;;13.98;88.39;101953.66;10458031;28;20136;-76
2021/09/05 07:32:17;;;;;;;16.92;11.63;;;;;;;14.35;86.29;101945.59;10459207;28;20048;-77
2021/09/05 07:37:20;;;;;;;18.48;12.85;;;;;;;14.53;85.66;101957.25;10457562;28;20575;-77
2021/09/05 07:42:21;;;;;;;18.42;11.75;;;;;;;14.95;83.67;101968.31;10457641;28;20041;-77
2021/09/05 07:47:23;;;;;;;17.67;9.70;;;;;;;14.71;82.82;101968.84;10457251;28;20477;-77
2021/09/05 07:52:25;;;;;;;18.05;10.27;;;;;;;15.22;81.38;101967.84;10454932;28;20344;-78
2021/09/05 07:57:27;;;;;;;16.67;9.77;;;;;;;15.14;81.64;101970.34;10444085;28;20044;-77
2021/09/05 08:02:28;;;;;;;16.80;9.75;;;;;;;15.16;80.56;101980.81;10456866;28;20052;-77
2021/09/05 08:07:30;;;;;;;13.68;9.15;;;;;;;15.32;79.89;101980.19;10457217;28;20413;-77
2021/09/05 08:12:31;;;;;;;14.80;9.02;;;;;;;15.64;78.31;101983.22;10456244;28;20482;-77
2021/09/05 08:17:33;;;;;;;12.13;7.90;;;;;;;15.79;78.56;101991.22;10455636;28;20049;-77
2021/09/05 08:22:34;;;;;;;17.23;9.02;;;;;;;15.83;77.55;101985.19;10455180;28;20445;-78
2021/09/05 08:27:36;;;;;;;10.63;7.95;;;;;;;16.16;76.41;101989.00;10455168;28;20045;-77
2021/09/05 08:32:38;;;;;;;11.85;8.02;;;;;;;16.24;76.02;101992.59;10454739;28;20053;-76
2021/09/05 08:37:40;;;;;;;12.32;8.15;;;;;;;16.14;75.34;101998.56;10455349;28;20154;-76
2021/09/05 08:42:42;;;;;;;17.10;8.82;;;;;;;16.51;74.96;101999.81;10456140;28;20052;-77
2021/09/05 08:47:43;;;;;;;13.07;7.32;;;;;;;16.78;73.40;102001.81;10455416;28;20060;-76
2021/09/05 08:52:46;;;;;;;13.73;7.57;;;;;;;17.01;72.81;102009.81;10454320;28;20041;-75
2021/09/05 08:57:48;;;;;;;10.38;6.97;;;;;;;16.73;72.89;102013.97;10441048;28;20056;-74
2021/09/05 09:02:54;;;;;;;8.77;6.65;;;;;;;16.89;72.72;102013.22;10454684;28;20079;-77
2021/09/05 09:08:02;;;;;;;10.77;6.82;;;;;;;17.12;70.33;102015.13;10454304;28;20505;-75
2021/09/05 09:13:04;;;;;;;11.95;7.07;;;;;;;17.04;70.58;102022.06;10454081;28;20049;-76
2021/09/05 09:18:05;;;;;;;11.60;7.70;;;;;;;17.46;69.68;102024.06;10460333;28;20512;-78
2021/09/05 09:23:19;;;;;;;13.05;6.82;;;;;;;17.68;71.01;102017.19;10453310;28;20048;-76
2021/09/05 09:28:36;;;;;;;13.13;7.47;;;;;;;17.43;70.75;102024.94;10455536;28;20057;-76
2021/09/05 09:33:38;;;;;;;17.65;8.23;;;;;;;17.65;68.46;102014.56;10453390;28;20056;-76
2021/09/05 09:38:42;;;;;;;11.05;7.18;;;;;;;17.79;68.80;102001.56;10453213;28;20068;-76
2021/09/05 09:43:55;;;;;;;9.47;7.57;;;;;;;18.18;67.81;102003.44;10453135;28;20501;-77
2021/09/05 09:48:59;;;;;;;9.50;6.72;;;;;;;18.53;66.65;101995.59;10454771;28;20048;-76
2021/09/05 09:54:01;;;;;;;11.07;6.10;;;;;;;19.28;63.76;101996.44;10450743;28;20037;-77
2021/09/05 09:59:07;;;;;;;8.85;6.63;;;;;;;19.41;64.57;101992.03;10456884;28;20048;-74
2021/09/05 10:04:15;;;;;;;11.55;6.38;;;;;;;19.24;63.51;101988.59;10460855;28;20056;-78
2021/09/05 10:09:19;;;;;;;8.52;6.28;;;;;;;19.75;61.70;101989.31;10460166;28;20060;-75
2021/09/05 10:14:20;;;;;;;9.20;6.47;;;;;;;20.00;59.89;101990.91;10459079;28;20489;-76
2021/09/05 10:19:23;;;;;;;8.27;5.43;;;;;;;20.80;58.38;101993.84;10462832;28;20060;-77
2021/09/05 10:24:24;;;;;;;8.77;6.28;;;;;;;20.98;55.98;101990.19;10466443;28;20053;-77
2021/09/05 10:29:26;;;;;;;75.65;15.10;;;;;;;21.40;56.42;101977.50;10460581;28;20045;-80
2021/09/05 10:34:33;;;;;;;6.95;5.28;;;;;;;21.79;54.28;101988.44;10458868;28;20053;-82
2021/09/05 10:39:35;;;;;;;11.70;5.65;;;;;;;22.52;50.77;101991.75;10460349;28;20048;-79
2021/09/05 10:45:00;;;;;;;8.05;5.68;;;;;;;22.29;50.72;101977.16;10461562;28;20045;-79
2021/09/05 10:50:03;;;;;;;7.60;5.45;;;;;;;22.07;53.31;101978.38;10448970;28;20059;-79
2021/09/05 10:55:07;;;;;;;8.43;5.85;;;;;;;22.40;51.66;101972.59;10445548;28;20056;-80
2021/09/05 11:00:09;;;;;;;8.05;5.70;;;;;;;23.21;49.60;101965.91;10457603;28;20466;-80
2021/09/05 11:05:15;;;;;;;6.95;6.03;;;;;;;22.90;50.12;101960.31;10458444;28;20045;-80
2021/09/05 11:10:49;;;;;;;7.70;4.95;;;;;;;23.35;49.13;101955.06;10459024;28;20512;-79
2021/09/05 11:15:51;;;;;;;9.00;5.73;;;;;;;23.69;48.20;101954.38;10458781;28;20131;-80
2021/09/05 11:20:54;;;;;;;7.68;5.40;;;;;;;23.62;48.81;101947.44;10449232;28;20103;-79
2021/09/05 11:25:55;;;;;;;8.63;5.75;;;;;;;22.87;51.55;101959.50;10456722;28;20045;-80
2021/09/05 11:30:59;;;;;;;10.38;6.03;;;;;;;23.01;47.38;101958.34;10457987;28;20053;-80
2021/09/05 11:36:02;;;;;;;6.72;5.85;;;;;;;23.55;46.61;101957.28;10455917;28;20448;-80
2021/09/05 11:41:04;;;;;;;6.53;5.63;;;;;;;23.67;46.90;101954.41;10454260;28;20056;-79
2021/09/05 11:46:11;;;;;;;8.60;4.75;;;;;;;24.12;46.57;101961.34;10456175;28;20056;-80
2021/09/05 11:51:12;;;;;;;9.70;5.25;;;;;;;23.40;47.44;101954.97;10458158;28;20083;-79
2021/09/05 11:56:15;;;;;;;8.50;5.60;;;;;;;23.74;47.66;101953.38;10448862;28;20053;-80
2021/09/05 12:01:17;;;;;;;9.80;6.07;;;;;;;23.56;48.11;101948.47;10457112;28;20044;-80
2021/09/05 12:06:19;;;;;;;9.98;5.28;;;;;;;23.96;47.77;101950.25;10457361;28;20472;-79
2021/09/05 12:11:21;;;;;;;8.10;5.07;;;;;;;23.80;45.10;101949.72;10456351;28;20476;-80
2021/09/05 12:16:28;;;;;;;8.13;5.30;;;;;;;23.27;46.46;101949.94;10456059;28;20053;-80
2021/09/05 12:21:32;;;;;;;6.78;5.07;;;;;;;23.84;47.57;101950.53;10456339;28;20486;-81
2021/09/05 12:26:37;;;;;;;7.20;5.97;;;;;;;23.13;46.39;101944.03;10456618;28;20114;-81
2021/09/05 12:31:47;;;;;;;7.30;5.82;;;;;;;23.24;48.53;101952.63;10456206;28;20061;-79
2021/09/05 12:36:57;;;;;;;9.05;6.00;;;;;;;22.95;47.47;101945.28;10455523;28;20080;-80
2021/09/05 12:42:12;;;;;;;7.35;5.50;;;;;;;22.88;46.38;101938.38;10457153;28;20076;-80
2021/09/05 12:47:25;;;;;;;7.45;5.45;;;;;;;23.28;46.77;101932.31;10455572;28;20053;-80
2021/09/05 12:52:32;;;;;;;7.35;5.65;;;;;;;22.85;45.88;101934.88;10456581;28;20044;-80
2021/09/05 12:57:34;;;;;;;6.85;5.55;;;;;;;22.95;47.09;101932.06;10455556;28;20076;-80
2021/09/05 13:02:35;;;;;;;7.53;5.55;;;;;;;22.74;47.10;101932.44;10454919;28;20048;-80
2021/09/05 13:07:37;;;;;;;7.55;5.85;;;;;;;23.07;46.84;101936.25;10454207;28;20491;-79
2021/09/05 13:12:39;;;;;;;7.05;5.75;;;;;;;23.01;48.69;101931.09;10454391;28;20076;-81
2021/09/05 13:17:41;;;;;;;9.43;5.90;;;;;;;22.85;49.13;101929.59;10459248;28;20049;-79
2021/09/05 13:22:43;;;;;;;6.53;5.40;;;;;;;23.12;48.15;101936.16;10454391;28;20052;-79
2021/09/05 13:27:44;;;;;;;7.68;5.20;;;;;;;22.86;47.40;101928.69;10455041;28;20056;-80
2021/09/05 13:32:46;;;;;;;7.47;5.55;;;;;;;22.86;45.70;101936.63;10454220;28;20111;-79
2021/09/05 13:37:48;;;;;;;8.30;4.63;;;;;;;22.81;47.43;101931.44;10454763;28;20433;-80
2021/09/05 13:42:50;;;;;;;9.52;5.90;;;;;;;22.60;47.95;101921.28;10454345;28;20053;-79
2021/09/05 13:47:52;;;;;;;7.72;6.10;;;;;;;22.64;46.89;101917.69;10455127;28;20053;-78
2021/09/05 13:52:53;;;;;;;8.57;6.07;;;;;;;22.91;46.78;101926.88;10453461;28;20041;-78
2021/09/05 13:57:55;;;;;;;8.10;6.72;;;;;;;22.64;48.25;101922.97;10440947;28;20052;-79
2021/09/05 14:02:56;;;;;;;5.72;4.95;;;;;;;22.62;47.52;101914.19;10443825;28;20060;-79
2021/09/05 14:07:58;;;;;;;7.32;5.55;;;;;;;22.67;49.36;101914.97;10450806;28;20045;-79
2021/09/05 14:13:00;;;;;;;8.90;6.15;;;;;;;22.58;49.14;101916.03;10452671;28;20048;-80
2021/09/05 14:18:02;;;;;;;8.85;6.13;;;;;;;22.70;49.98;101907.03;10455697;28;20051;-79
2021/09/05 14:23:04;;;;;;;9.07;6.70;;;;;;;22.73;50.20;101918.38;10453089;28;20051;-79
2021/09/05 14:28:09;;;;;;;9.35;6.20;;;;;;;22.45;50.30;101917.13;10447204;28;20049;-79
2021/09/05 14:33:36;;;;;;;10.05;6.47;;;;;;;22.65;50.10;101911.50;10448688;28;20053;-77
2021/09/05 14:49:02;;;;;;;8.07;6.38;;;;;;;22.39;51.15;101909.31;10460929;28;20056;-76
2021/09/05 14:54:15;;;;;;;9.23;7.25;;;;;;;22.44;49.94;101913.63;10451858;28;20049;-76
2021/09/05 14:59:34;;;;;;;8.43;6.32;;;;;;;22.00;49.54;101910.81;10455844;28;20071;-76
2021/09/05 15:15:13;;;;;;;9.18;6.35;;;;;;;22.24;49.57;101913.09;10453824;28;20390;-75
2021/09/05 15:20:16;;;;;;;7.88;6.57;;;;;;;22.06;49.53;101906.31;10458086;28;20056;-76
2021/09/05 15:25:20;;;;;;;8.98;6.85;;;;;;;21.96;50.16;101902.09;10459349;28;20044;-76
2021/09/05 15:52:19;;;;;;;7.70;5.95;;;;;;;22.00;49.37;101911.66;10447576;28;19925;-78
2021/09/05 15:57:20;;;;;;;9.52;6.85;;;;;;;21.64;50.75;101910.47;10456942;28;20045;-78
2021/09/05 16:18:08;;;;;;;29.63;26.48;;;;;;;21.56;50.02;101907.94;10463147;28;20076;-78
2021/09/05 16:23:10;;;;;;;8.25;6.30;;;;;;;21.76;48.44;101914.69;10456002;28;20051;-77
2021/09/05 16:28:11;;;;;;;7.43;6.25;;;;;;;21.63;49.57;101914.00;10455501;28;20056;-77
2021/09/05 16:33:28;;;;;;;9.15;6.07;;;;;;;21.51;51.43;101911.53;10457027;28;20049;-77
2021/09/05 16:43:50;;;;;;;8.07;6.25;;;;;;;21.33;51.65;101918.78;10457000;28;20127;-79
2021/09/05 16:48:54;;;;;;;7.95;7.15;;;;;;;21.11;52.84;101914.63;10457497;28;20079;-79
2021/09/05 16:53:56;;;;;;;10.13;7.13;;;;;;;21.18;53.54;101917.16;10456303;28;20071;-77
2021/09/05 16:58:58;;;;;;;7.38;6.10;;;;;;;21.07;53.63;101923.44;10454180;28;20056;-78
2021/09/05 17:04:00;;;;;;;9.20;7.07;;;;;;;21.00;54.67;101932.28;10454824;28;20051;-79
2021/09/05 17:09:02;;;;;;;9.73;6.80;;;;;;;20.86;54.90;101938.56;10455456;28;20144;-78
2021/09/05 17:14:04;;;;;;;8.60;6.70;;;;;;;20.76;56.93;101943.91;10452699;28;20037;-79
2021/09/05 17:19:05;;;;;;;10.85;7.78;;;;;;;20.57;58.15;101945.84;10453568;28;20485;-79
2021/09/05 17:24:07;;;;;;;8.88;6.93;;;;;;;20.37;59.72;101948.63;10454286;28;20056;-76
2021/09/05 17:29:08;;;;;;;8.60;7.13;;;;;;;20.27;59.44;101946.94;10454039;28;20061;-76
2021/09/05 17:34:12;;;;;;;9.65;8.00;;;;;;;20.26;59.10;101946.09;10454253;28;20048;-78
2021/09/05 17:39:14;;;;;;;10.60;7.30;;;;;;;19.52;65.62;101952.63;10440493;28;20053;-79
2021/09/05 17:44:16;;;;;;;9.63;6.50;;;;;;;19.31;66.06;101950.94;10449926;28;20044;-77
2021/09/05 17:49:19;;;;;;;11.40;6.97;;;;;;;18.94;69.30;101958.03;10453363;28;20052;-79
2021/09/05 17:54:20;;;;;;;12.10;7.30;;;;;;;18.74;70.53;101964.19;10452893;28;20045;-77
2021/09/05 17:59:22;;;;;;;9.95;6.97;;;;;;;18.45;72.31;101968.53;10453474;28;20049;-77
2021/09/05 18:04:28;;;;;;;9.20;7.40;;;;;;;18.31;74.59;101975.50;10454399;28;20049;-78
2021/09/05 18:09:32;;;;;;;10.90;8.25;;;;;;;17.75;78.55;101971.88;10453334;28;20067;-76
2021/09/05 18:14:34;;;;;;;11.93;8.38;;;;;;;17.91;77.67;101980.66;10458560;28;20134;-76
2021/09/05 18:19:36;;;;;;;11.40;7.55;;;;;;;17.52;79.76;101997.91;10472557;28;20523;-77
2021/09/05 18:24:37;;;;;;;9.95;7.53;;;;;;;17.11;82.38;102000.31;10461549;28;20091;-76
2021/09/05 18:29:40;;;;;;;10.70;7.80;;;;;;;16.96;83.59;102003.72;10457139;28;20060;-76
2021/09/05 18:34:42;;;;;;;1946.38;448.88;;;;;;;16.82;85.27;102003.59;10448707;28;20382;-76
2021/09/05 18:39:43;;;;;;;22.13;9.52;;;;;;;16.46;87.26;102014.59;10458603;28;20049;-76
2021/09/05 18:44:45;;;;;;;17.73;10.63;;;;;;;16.27;89.06;102010.03;10459668;28;20060;-77
2021/09/05 18:49:47;;;;;;;18.10;9.60;;;;;;;16.10;89.46;102021.16;10459716;28;20049;-79
2021/09/05 18:54:50;;;;;;;35.95;11.40;;;;;;;15.96;90.25;102021.88;10459600;28;20051;-81
2021/09/05 18:59:52;;;;;;;19.10;10.05;;;;;;;15.82;89.98;102013.88;10460813;28;20061;-81
2021/09/05 19:04:53;;;;;;;12.25;8.88;;;;;;;15.57;90.93;102030.91;10457758;28;20055;-80
2021/09/05 19:09:55;;;;;;;16.73;9.85;;;;;;;15.38;91.87;102032.41;10458514;28;20064;-81
2021/09/05 19:14:56;;;;;;;16.48;9.32;;;;;;;15.30;91.78;102042.72;10457989;28;20055;-81
2021/09/05 19:19:58;;;;;;;15.90;9.85;;;;;;;15.03;92.96;102051.00;10459885;28;20565;-81
2021/09/05 19:25:00;;;;;;;18.00;10.77;;;;;;;14.77;94.11;102050.56;10457639;28;20060;-81
2021/09/05 19:30:02;;;;;;;16.77;9.40;;;;;;;14.82;93.87;102051.53;10467889;28;20057;-80
2021/09/05 19:35:04;;;;;;;13.68;9.32;;;;;;;14.73;94.24;102059.16;10445949;28;20045;-81
2021/09/05 19:40:07;;;;;;;13.68;9.93;;;;;;;14.59;93.91;102055.47;10455733;28;20060;-81
2021/09/05 19:45:10;;;;;;;12.13;9.32;;;;;;;14.48;93.66;102060.47;10456549;28;20110;-80
2021/09/05 19:50:12;;;;;;;14.48;10.27;;;;;;;14.41;92.85;102070.69;10457299;28;20049;-80
2021/09/05 19:55:14;;;;;;;15.05;10.82;;;;;;;14.25;94.95;102067.81;10457653;28;20048;-80
2021/09/05 20:00:17;;;;;;;13.63;10.23;;;;;;;14.01;96.59;102078.63;10456433;28;20064;-80
2021/09/05 20:05:19;;;;;;;16.65;9.70;;;;;;;14.06;96.26;102082.16;10457435;28;20055;-80
2021/09/05 20:10:20;;;;;;;15.32;11.07;;;;;;;13.95;96.28;102091.47;10456431;28;20060;-80
2021/09/05 20:15:22;;;;;;;17.45;10.23;;;;;;;13.89;96.26;102090.47;10456298;28;20052;-80
2021/09/05 20:20:24;;;;;;;13.63;10.07;;;;;;;13.72;96.07;102100.50;10456699;28;20063;-80
2021/09/05 20:25:26;;;;;;;13.30;11.02;;;;;;;13.57;96.26;102094.97;10456153;28;20502;-81
2021/09/05 20:30:27;;;;;;;14.90;10.80;;;;;;;13.52;97.09;102098.34;10455534;28;20515;-80
2021/09/05 20:35:29;;;;;;;13.98;9.93;;;;;;;13.44;97.14;102107.72;10454455;28;20061;-81
2021/09/05 20:40:31;;;;;;;14.20;11.00;;;;;;;13.34;96.92;102110.91;10455382;28;20543;-81
2021/09/05 20:45:32;;;;;;;15.50;11.13;;;;;;;13.29;97.37;102109.06;10455458;28;20045;-81
2021/09/05 20:50:36;;;;;;;17.20;11.20;;;;;;;13.23;97.36;102108.06;10455928;28;21916;-80
2021/09/05 20:55:38;;;;;;;18.63;11.63;;;;;;;13.09;97.72;102101.59;10455948;28;20052;-80
2021/09/05 21:00:43;;;;;;;16.05;11.60;;;;;;;13.08;96.28;102104.16;10455358;28;20060;-80
2021/09/05 21:05:44;;;;;;;14.60;11.63;;;;;;;12.89;96.86;102108.91;10454785;28;20045;-80
2021/09/05 21:10:46;;;;;;;16.88;11.80;;;;;;;12.70;96.87;102106.66;10453808;28;20045;-81
2021/09/05 21:15:48;;;;;;;14.52;10.15;;;;;;;12.68;96.59;102106.63;10454311;28;20048;-79
2021/09/05 21:20:49;;;;;;;13.40;10.38;;;;;;;12.49;97.23;102106.09;10459587;28;20412;-81
2021/09/05 21:25:51;;;;;;;13.85;10.70;;;;;;;12.53;98.15;102106.19;10454471;28;20053;-82
2021/09/05 21:30:53;;;;;;;16.67;11.65;;;;;;;12.49;98.65;102104.38;10454352;28;20081;-80
2021/09/05 21:35:56;;;;;;;15.38;11.60;;;;;;;12.43;98.15;102105.09;10453580;28;20128;-80
2021/09/05 21:40:57;;;;;;;13.68;9.65;;;;;;;12.31;98.59;102116.81;10455044;28;20059;-80
2021/09/05 21:45:59;;;;;;;12.98;9.55;;;;;;;12.11;99.02;102113.66;10460097;28;20067;-81
2021/09/05 21:51:00;;;;;;;14.50;10.38;;;;;;;12.12;98.96;102112.84;10467042;28;20087;-80
2021/09/05 21:56:02;;;;;;;19.65;10.50;;;;;;;12.02;98.98;102114.28;10466937;28;20049;-79
2021/09/05 22:01:04;;;;;;;13.38;9.88;;;;;;;11.87;99.54;102126.81;10466957;28;20132;-80
2021/09/05 22:06:06;;;;;;;19.00;10.63;;;;;;;11.82;99.51;102118.88;10467186;28;20203;-80
2021/09/05 22:11:07;;;;;;;15.30;10.90;;;;;;;11.79;99.73;102113.56;10467543;28;20057;-81
2021/09/05 22:16:09;;;;;;;17.35;11.32;;;;;;;11.72;99.58;102113.31;10468560;28;20145;-81
2021/09/05 22:21:11;;;;;;;18.25;11.60;;;;;;;11.65;100.00;102113.13;10467284;28;20512;-80
2021/09/05 22:26:12;;;;;;;16.08;10.85;;;;;;;11.54;100.00;102113.66;10467695;28;20063;-80
2021/09/05 22:31:14;;;;;;;17.17;11.18;;;;;;;11.55;99.41;102121.47;10466944;28;20052;-80
2021/09/05 22:36:16;;;;;;;14.98;10.43;;;;;;;11.44;99.62;102119.34;10466397;28;20056;-79
2021/09/05 22:41:17;;;;;;;13.18;10.77;;;;;;;11.46;100.00;102122.88;10466498;28;20490;-79
2021/09/05 22:46:19;;;;;;;16.92;11.52;;;;;;;11.37;99.97;102126.06;10466720;28;20044;-78
2021/09/05 22:51:21;;;;;;;16.58;11.25;;;;;;;11.35;99.98;102126.03;10469648;28;20555;-79
2021/09/05 22:56:23;;;;;;;22.88;12.02;;;;;;;11.20;100.00;102112.56;10463363;28;20136;-80
2021/09/05 23:01:24;;;;;;;17.95;11.38;;;;;;;11.15;100.00;102124.47;10459482;28;20053;-80
2021/09/05 23:06:26;;;;;;;16.65;10.93;;;;;;;11.02;100.00;102123.19;10460337;28;20499;-79
2021/09/05 23:11:28;;;;;;;18.70;11.65;;;;;;;11.13;100.00;102118.38;10460640;28;20060;-79
2021/09/05 23:16:29;;;;;;;17.98;11.48;;;;;;;11.07;100.00;102121.66;10459028;28;20048;-79
2021/09/05 23:21:31;;;;;;;13.98;10.23;;;;;;;10.97;100.00;102118.69;10460179;28;20056;-79
2021/09/05 23:26:34;;;;;;;14.45;10.77;;;;;;;11.02;100.00;102119.72;10449903;28;20132;-79
2021/09/05 23:31:36;;;;;;;21.25;12.85;;;;;;;10.92;100.00;102118.53;10458105;28;20136;-79
2021/09/05 23:36:37;;;;;;;19.15;12.70;;;;;;;10.85;100.00;102126.94;10459194;28;20049;-80
2021/09/05 23:41:39;;;;;;;18.45;10.80;;;;;;;10.83;100.00;102126.88;10457942;28;20055;-78
2021/09/05 23:46:41;;;;;;;14.85;10.73;;;;;;;10.75;100.00;102117.94;10457671;28;20051;-79
2021/09/05 23:51:42;;;;;;;16.55;10.88;;;;;;;10.64;100.00;102131.34;10457489;28;20524;-79